sensor_id;sensor_type;location;lat;lon;timestamp;P1;durP1;ratioP1;P2;durP2;ratioP2
66587;SDS011;53446;50.076;8.198;2022-10-29T00:00:06;15.38;;;5.05;;
66587;SDS011;53446;50.076;8.198;2022-10-29T00:02:07;19.07;;;6.00;;
66587;SDS011;53446;50.076;8.198;2022-10-29T00:04:07;15.50;;;5.45;;
66587;SDS011;53446;50.076;8.198;2022-10-29T00:06:08;15.05;;;5.97;;
66587;SDS011;53446;50.076;8.198;2022-10-29T00:08:10;11.60;;;5.38;;
66587;SDS011;53446;50.076;8.198;2022-10-29T00:10:10;18.65;;;6.78;;
66587;SDS011;53446;50.076;8.198;2022-10-29T00:12:10;20.90;;;7.37;;
66587;SDS011;53446;50.076;8.198;2022-10-29T00:14:11;16.60;;;5.70;;
66587;SDS011;53446;50.076;8.198;2022-10-29T00:16:15;14.70;;;5.77;;
66587;SDS011;53446;50.076;8.198;2022-10-29T00:18:17;15.25;;;6.00;;
66587;SDS011;53446;50.076;8.198;2022-10-29T00:20:18;12.60;;;6.03;;
66587;SDS011;53446;50.076;8.198;2022-10-29T00:22:19;15.30;;;5.95;;
66587;SDS011;53446;50.076;8.198;2022-10-29T00:24:20;21.83;;;6.07;;
66587;SDS011;53446;50.076;8.198;2022-10-29T00:26:20;15.03;;;5.33;;
66587;SDS011;53446;50.076;8.198;2022-10-29T00:28:21;17.60;;;5.80;;
66587;SDS011;53446;50.076;8.198;2022-10-29T00:30:21;20.25;;;5.75;;
66587;SDS011;53446;50.076;8.198;2022-10-29T00:32:21;17.52;;;5.80;;
66587;SDS011;53446;50.076;8.198;2022-10-29T00:34:22;17.20;;;6.13;;
66587;SDS011;53446;50.076;8.198;2022-10-29T00:36:27;19.87;;;5.73;;
66587;SDS011;53446;50.076;8.198;2022-10-29T00:38:29;14.60;;;5.13;;
66587;SDS011;53446;50.076;8.198;2022-10-29T00:40:30;12.88;;;5.10;;
66587;SDS011;53446;50.076;8.198;2022-10-29T00:42:35;12.45;;;4.88;;
66587;SDS011;53446;50.076;8.198;2022-10-29T00:44:36;16.37;;;5.63;;
66587;SDS011;53446;50.076;8.198;2022-10-29T00:46:37;16.58;;;5.70;;
66587;SDS011;53446;50.076;8.198;2022-10-29T00:48:42;15.57;;;5.30;;
66587;SDS011;53446;50.076;8.198;2022-10-29T00:50:44;11.07;;;4.82;;
66587;SDS011;53446;50.076;8.198;2022-10-29T00:52:45;17.95;;;5.28;;
66587;SDS011;53446;50.076;8.198;2022-10-29T00:54:47;19.87;;;5.07;;
66587;SDS011;53446;50.076;8.198;2022-10-29T00:56:50;12.18;;;4.78;;
66587;SDS011;53446;50.076;8.198;2022-10-29T00:58:52;13.45;;;3.97;;
66587;SDS011;53446;50.076;8.198;2022-10-29T01:00:53;20.87;;;5.90;;
66587;SDS011;53446;50.076;8.198;2022-10-29T01:02:53;17.43;;;5.37;;
66587;SDS011;53446;50.076;8.198;2022-10-29T01:04:53;14.38;;;6.03;;
66587;SDS011;53446;50.076;8.198;2022-10-29T01:06:54;16.02;;;5.65;;
66587;SDS011;53446;50.076;8.198;2022-10-29T01:08:54;9.93;;;4.57;;
66587;SDS011;53446;50.076;8.198;2022-10-29T01:13:17;16.15;;;5.05;;
66587;SDS011;53446;50.076;8.198;2022-10-29T01:15:47;12.52;;;4.97;;
66587;SDS011;53446;50.076;8.198;2022-10-29T01:23:09;19.42;;;4.88;;
66587;SDS011;53446;50.076;8.198;2022-10-29T01:32:57;14.30;;;4.97;;
66587;SDS011;53446;50.076;8.198;2022-10-29T01:37:30;16.92;;;5.13;;
66587;SDS011;53446;50.076;8.198;2022-10-29T01:43:54;18.23;;;5.30;;
66587;SDS011;53446;50.076;8.198;2022-10-29T01:46:03;13.57;;;5.13;;
66587;SDS011;53446;50.076;8.198;2022-10-29T01:48:12;12.82;;;4.70;;
66587;SDS011;53446;50.076;8.198;2022-10-29T01:50:18;16.23;;;5.40;;
66587;SDS011;53446;50.076;8.198;2022-10-29T01:52:20;12.35;;;5.30;;
66587;SDS011;53446;50.076;8.198;2022-10-29T01:54:21;17.83;;;6.33;;
66587;SDS011;53446;50.076;8.198;2022-10-29T01:56:21;16.33;;;6.45;;
66587;SDS011;53446;50.076;8.198;2022-10-29T01:58:22;16.63;;;5.95;;
66587;SDS011;53446;50.076;8.198;2022-10-29T02:00:23;12.63;;;5.63;;
66587;SDS011;53446;50.076;8.198;2022-10-29T02:02:29;16.70;;;6.20;;
66587;SDS011;53446;50.076;8.198;2022-10-29T02:07:08;22.73;;;6.45;;
66587;SDS011;53446;50.076;8.198;2022-10-29T02:09:14;13.02;;;5.07;;
66587;SDS011;53446;50.076;8.198;2022-10-29T02:11:32;19.97;;;5.30;;
66587;SDS011;53446;50.076;8.198;2022-10-29T02:13:40;12.73;;;4.80;;
66587;SDS011;53446;50.076;8.198;2022-10-29T02:15:46;16.02;;;5.88;;
66587;SDS011;53446;50.076;8.198;2022-10-29T02:17:47;15.50;;;4.95;;
66587;SDS011;53446;50.076;8.198;2022-10-29T02:19:48;11.27;;;4.10;;
66587;SDS011;53446;50.076;8.198;2022-10-29T02:21:49;17.87;;;4.40;;
66587;SDS011;53446;50.076;8.198;2022-10-29T02:23:49;17.30;;;5.05;;
66587;SDS011;53446;50.076;8.198;2022-10-29T02:25:50;19.97;;;6.03;;
66587;SDS011;53446;50.076;8.198;2022-10-29T02:27:50;20.60;;;6.17;;
66587;SDS011;53446;50.076;8.198;2022-10-29T02:29:50;15.70;;;5.33;;
66587;SDS011;53446;50.076;8.198;2022-10-29T02:31:51;20.63;;;5.40;;
66587;SDS011;53446;50.076;8.198;2022-10-29T02:33:51;19.10;;;5.50;;
66587;SDS011;53446;50.076;8.198;2022-10-29T02:35:51;15.27;;;4.93;;
66587;SDS011;53446;50.076;8.198;2022-10-29T02:37:52;18.45;;;5.40;;
66587;SDS011;53446;50.076;8.198;2022-10-29T02:39:52;14.00;;;4.90;;
66587;SDS011;53446;50.076;8.198;2022-10-29T02:41:52;12.43;;;5.83;;
66587;SDS011;53446;50.076;8.198;2022-10-29T02:43:53;18.97;;;5.90;;
66587;SDS011;53446;50.076;8.198;2022-10-29T02:48:13;16.63;;;6.03;;
66587;SDS011;53446;50.076;8.198;2022-10-29T02:50:14;15.63;;;5.30;;
66587;SDS011;53446;50.076;8.198;2022-10-29T02:52:15;18.33;;;6.93;;
66587;SDS011;53446;50.076;8.198;2022-10-29T02:54:15;14.67;;;5.47;;
66587;SDS011;53446;50.076;8.198;2022-10-29T02:56:15;22.03;;;6.17;;
66587;SDS011;53446;50.076;8.198;2022-10-29T02:58:15;18.02;;;5.85;;
66587;SDS011;53446;50.076;8.198;2022-10-29T03:00:16;13.82;;;6.13;;
66587;SDS011;53446;50.076;8.198;2022-10-29T03:02:16;20.47;;;6.53;;
66587;SDS011;53446;50.076;8.198;2022-10-29T03:04:17;14.67;;;5.80;;
66587;SDS011;53446;50.076;8.198;2022-10-29T03:06:18;17.13;;;5.90;;
66587;SDS011;53446;50.076;8.198;2022-10-29T03:08:18;13.10;;;4.75;;
66587;SDS011;53446;50.076;8.198;2022-10-29T03:10:19;16.90;;;6.40;;
66587;SDS011;53446;50.076;8.198;2022-10-29T03:12:19;21.60;;;6.07;;
66587;SDS011;53446;50.076;8.198;2022-10-29T03:14:19;11.35;;;5.20;;
66587;SDS011;53446;50.076;8.198;2022-10-29T03:16:20;16.80;;;5.38;;
66587;SDS011;53446;50.076;8.198;2022-10-29T03:18:20;12.87;;;5.00;;
66587;SDS011;53446;50.076;8.198;2022-10-29T03:20:20;15.10;;;5.67;;
66587;SDS011;53446;50.076;8.198;2022-10-29T03:22:21;12.90;;;5.40;;
66587;SDS011;53446;50.076;8.198;2022-10-29T03:24:21;22.03;;;7.03;;
66587;SDS011;53446;50.076;8.198;2022-10-29T03:26:21;15.07;;;5.00;;
66587;SDS011;53446;50.076;8.198;2022-10-29T03:28:22;12.80;;;5.53;;
66587;SDS011;53446;50.076;8.198;2022-10-29T03:30:23;15.88;;;5.93;;
66587;SDS011;53446;50.076;8.198;2022-10-29T03:32:23;14.33;;;5.60;;
66587;SDS011;53446;50.076;8.198;2022-10-29T03:34:24;19.25;;;6.10;;
66587;SDS011;53446;50.076;8.198;2022-10-29T03:36:24;12.60;;;5.07;;
66587;SDS011;53446;50.076;8.198;2022-10-29T03:38:25;14.70;;;5.10;;
66587;SDS011;53446;50.076;8.198;2022-10-29T03:40:25;13.63;;;5.43;;
66587;SDS011;53446;50.076;8.198;2022-10-29T03:42:25;18.27;;;6.23;;
66587;SDS011;53446;50.076;8.198;2022-10-29T03:44:25;17.13;;;5.77;;
66587;SDS011;53446;50.076;8.198;2022-10-29T03:46:26;14.27;;;4.63;;
66587;SDS011;53446;50.076;8.198;2022-10-29T03:48:26;16.52;;;6.15;;
66587;SDS011;53446;50.076;8.198;2022-10-29T03:50:26;15.77;;;6.37;;
66587;SDS011;53446;50.076;8.198;2022-10-29T03:52:27;14.13;;;5.47;;
66587;SDS011;53446;50.076;8.198;2022-10-29T03:54:27;13.93;;;6.30;;
66587;SDS011;53446;50.076;8.198;2022-10-29T03:56:27;19.30;;;5.87;;
66587;SDS011;53446;50.076;8.198;2022-10-29T03:58:28;16.67;;;5.80;;
66587;SDS011;53446;50.076;8.198;2022-10-29T04:00:28;12.90;;;5.20;;
66587;SDS011;53446;50.076;8.198;2022-10-29T04:02:28;18.75;;;6.25;;
66587;SDS011;53446;50.076;8.198;2022-10-29T04:04:29;12.98;;;4.75;;
66587;SDS011;53446;50.076;8.198;2022-10-29T04:06:29;19.07;;;5.87;;
66587;SDS011;53446;50.076;8.198;2022-10-29T04:08:30;20.97;;;6.67;;
66587;SDS011;53446;50.076;8.198;2022-10-29T04:10:30;16.80;;;5.70;;
66587;SDS011;53446;50.076;8.198;2022-10-29T04:12:30;14.45;;;5.07;;
66587;SDS011;53446;50.076;8.198;2022-10-29T04:14:31;15.53;;;5.93;;
66587;SDS011;53446;50.076;8.198;2022-10-29T04:16:31;11.90;;;5.13;;
66587;SDS011;53446;50.076;8.198;2022-10-29T04:18:31;11.40;;;4.60;;
66587;SDS011;53446;50.076;8.198;2022-10-29T04:20:32;16.77;;;5.20;;
66587;SDS011;53446;50.076;8.198;2022-10-29T04:22:32;14.47;;;6.63;;
66587;SDS011;53446;50.076;8.198;2022-10-29T04:24:32;13.97;;;5.60;;
66587;SDS011;53446;50.076;8.198;2022-10-29T04:26:32;12.80;;;4.50;;
66587;SDS011;53446;50.076;8.198;2022-10-29T04:28:33;19.40;;;5.40;;
66587;SDS011;53446;50.076;8.198;2022-10-29T04:30:33;16.42;;;5.30;;
66587;SDS011;53446;50.076;8.198;2022-10-29T04:32:33;16.17;;;6.17;;
66587;SDS011;53446;50.076;8.198;2022-10-29T04:34:34;17.37;;;5.57;;
66587;SDS011;53446;50.076;8.198;2022-10-29T04:36:34;12.43;;;5.00;;
66587;SDS011;53446;50.076;8.198;2022-10-29T04:38:34;12.80;;;5.47;;
66587;SDS011;53446;50.076;8.198;2022-10-29T04:40:35;16.27;;;5.63;;
66587;SDS011;53446;50.076;8.198;2022-10-29T04:42:35;14.87;;;6.70;;
66587;SDS011;53446;50.076;8.198;2022-10-29T04:44:36;15.35;;;5.57;;
66587;SDS011;53446;50.076;8.198;2022-10-29T04:46:37;17.13;;;6.03;;
66587;SDS011;53446;50.076;8.198;2022-10-29T04:48:37;15.07;;;5.73;;
66587;SDS011;53446;50.076;8.198;2022-10-29T04:50:37;18.50;;;7.33;;
66587;SDS011;53446;50.076;8.198;2022-10-29T04:52:38;12.95;;;5.45;;
66587;SDS011;53446;50.076;8.198;2022-10-29T04:54:38;15.20;;;5.20;;
66587;SDS011;53446;50.076;8.198;2022-10-29T04:56:38;13.20;;;5.80;;
66587;SDS011;53446;50.076;8.198;2022-10-29T04:58:38;11.93;;;5.23;;
66587;SDS011;53446;50.076;8.198;2022-10-29T05:00:39;13.30;;;5.30;;
66587;SDS011;53446;50.076;8.198;2022-10-29T05:02:39;13.20;;;5.20;;
66587;SDS011;53446;50.076;8.198;2022-10-29T05:04:40;15.73;;;5.32;;
66587;SDS011;53446;50.076;8.198;2022-10-29T05:06:40;17.27;;;5.40;;
66587;SDS011;53446;50.076;8.198;2022-10-29T05:08:40;12.80;;;4.97;;
66587;SDS011;53446;50.076;8.198;2022-10-29T05:10:41;13.60;;;4.90;;
66587;SDS011;53446;50.076;8.198;2022-10-29T05:12:41;10.47;;;5.37;;
66587;SDS011;53446;50.076;8.198;2022-10-29T05:14:41;14.93;;;5.70;;
66587;SDS011;53446;50.076;8.198;2022-10-29T05:16:42;15.57;;;6.30;;
66587;SDS011;53446;50.076;8.198;2022-10-29T05:18:42;15.30;;;6.25;;
66587;SDS011;53446;50.076;8.198;2022-10-29T05:20:42;13.50;;;5.93;;
66587;SDS011;53446;50.076;8.198;2022-10-29T05:22:43;15.20;;;5.80;;
66587;SDS011;53446;50.076;8.198;2022-10-29T05:24:43;16.53;;;5.50;;
66587;SDS011;53446;50.076;8.198;2022-10-29T05:26:43;16.23;;;5.13;;
66587;SDS011;53446;50.076;8.198;2022-10-29T05:28:44;12.33;;;5.37;;
66587;SDS011;53446;50.076;8.198;2022-10-29T05:30:44;11.87;;;4.77;;
66587;SDS011;53446;50.076;8.198;2022-10-29T05:32:45;12.23;;;5.53;;
66587;SDS011;53446;50.076;8.198;2022-10-29T05:34:45;16.00;;;5.10;;
66587;SDS011;53446;50.076;8.198;2022-10-29T05:36:46;15.77;;;5.67;;
66587;SDS011;53446;50.076;8.198;2022-10-29T05:38:46;14.93;;;5.38;;
66587;SDS011;53446;50.076;8.198;2022-10-29T05:40:46;15.95;;;4.47;;
66587;SDS011;53446;50.076;8.198;2022-10-29T05:42:47;11.73;;;4.73;;
66587;SDS011;53446;50.076;8.198;2022-10-29T05:44:47;14.13;;;4.87;;
66587;SDS011;53446;50.076;8.198;2022-10-29T05:46:48;15.83;;;6.00;;
66587;SDS011;53446;50.076;8.198;2022-10-29T05:48:48;13.23;;;5.43;;
66587;SDS011;53446;50.076;8.198;2022-10-29T05:50:49;13.67;;;4.70;;
66587;SDS011;53446;50.076;8.198;2022-10-29T05:53:02;13.23;;;5.00;;
66587;SDS011;53446;50.076;8.198;2022-10-29T05:55:04;13.75;;;5.30;;
66587;SDS011;53446;50.076;8.198;2022-10-29T05:57:05;14.48;;;5.97;;
66587;SDS011;53446;50.076;8.198;2022-10-29T05:59:05;17.90;;;6.37;;
66587;SDS011;53446;50.076;8.198;2022-10-29T06:01:06;11.77;;;5.70;;
66587;SDS011;53446;50.076;8.198;2022-10-29T06:03:17;16.30;;;4.82;;
66587;SDS011;53446;50.076;8.198;2022-10-29T06:05:19;14.90;;;5.03;;
66587;SDS011;53446;50.076;8.198;2022-10-29T06:07:19;18.27;;;6.22;;
66587;SDS011;53446;50.076;8.198;2022-10-29T06:09:19;12.50;;;5.30;;
66587;SDS011;53446;50.076;8.198;2022-10-29T06:11:19;13.43;;;6.17;;
66587;SDS011;53446;50.076;8.198;2022-10-29T06:13:20;13.07;;;5.77;;
66587;SDS011;53446;50.076;8.198;2022-10-29T06:15:21;14.77;;;5.15;;
66587;SDS011;53446;50.076;8.198;2022-10-29T06:17:21;16.00;;;6.07;;
66587;SDS011;53446;50.076;8.198;2022-10-29T06:19:22;17.10;;;6.23;;
66587;SDS011;53446;50.076;8.198;2022-10-29T06:21:22;14.23;;;5.78;;
66587;SDS011;53446;50.076;8.198;2022-10-29T06:23:22;16.98;;;5.72;;
66587;SDS011;53446;50.076;8.198;2022-10-29T06:25:23;14.90;;;5.20;;
66587;SDS011;53446;50.076;8.198;2022-10-29T06:27:24;14.15;;;5.53;;
66587;SDS011;53446;50.076;8.198;2022-10-29T06:29:24;15.05;;;4.97;;
66587;SDS011;53446;50.076;8.198;2022-10-29T06:31:26;15.18;;;5.20;;
66587;SDS011;53446;50.076;8.198;2022-10-29T06:33:26;14.53;;;5.87;;
66587;SDS011;53446;50.076;8.198;2022-10-29T06:35:26;15.73;;;5.83;;
66587;SDS011;53446;50.076;8.198;2022-10-29T06:37:27;13.90;;;5.47;;
66587;SDS011;53446;50.076;8.198;2022-10-29T06:39:28;17.42;;;8.07;;
66587;SDS011;53446;50.076;8.198;2022-10-29T06:41:28;15.23;;;6.67;;
66587;SDS011;53446;50.076;8.198;2022-10-29T06:43:29;16.10;;;6.73;;
66587;SDS011;53446;50.076;8.198;2022-10-29T06:45:29;12.93;;;5.87;;
66587;SDS011;53446;50.076;8.198;2022-10-29T06:47:30;15.85;;;5.28;;
66587;SDS011;53446;50.076;8.198;2022-10-29T06:49:30;13.53;;;5.70;;
66587;SDS011;53446;50.076;8.198;2022-10-29T06:51:30;14.23;;;5.33;;
66587;SDS011;53446;50.076;8.198;2022-10-29T06:53:31;13.80;;;5.43;;
66587;SDS011;53446;50.076;8.198;2022-10-29T06:55:31;13.20;;;5.07;;
66587;SDS011;53446;50.076;8.198;2022-10-29T06:57:32;10.73;;;5.55;;
66587;SDS011;53446;50.076;8.198;2022-10-29T06:59:32;14.13;;;6.37;;
66587;SDS011;53446;50.076;8.198;2022-10-29T07:01:33;16.45;;;6.15;;
66587;SDS011;53446;50.076;8.198;2022-10-29T07:03:33;14.50;;;5.57;;
66587;SDS011;53446;50.076;8.198;2022-10-29T07:05:33;14.43;;;5.83;;
66587;SDS011;53446;50.076;8.198;2022-10-29T07:07:35;13.93;;;6.22;;
66587;SDS011;53446;50.076;8.198;2022-10-29T07:09:35;16.93;;;6.80;;
66587;SDS011;53446;50.076;8.198;2022-10-29T07:11:35;19.20;;;6.70;;
66587;SDS011;53446;50.076;8.198;2022-10-29T07:13:36;20.83;;;10.53;;
66587;SDS011;53446;50.076;8.198;2022-10-29T07:15:36;19.27;;;7.87;;
66587;SDS011;53446;50.076;8.198;2022-10-29T07:17:36;20.17;;;7.87;;
66587;SDS011;53446;50.076;8.198;2022-10-29T07:19:37;17.90;;;6.97;;
66587;SDS011;53446;50.076;8.198;2022-10-29T07:21:37;17.10;;;6.80;;
66587;SDS011;53446;50.076;8.198;2022-10-29T07:23:37;17.38;;;5.97;;
66587;SDS011;53446;50.076;8.198;2022-10-29T07:25:38;22.80;;;6.97;;
66587;SDS011;53446;50.076;8.198;2022-10-29T07:27:38;15.63;;;6.03;;
66587;SDS011;53446;50.076;8.198;2022-10-29T07:29:39;14.25;;;6.30;;
66587;SDS011;53446;50.076;8.198;2022-10-29T07:31:39;17.30;;;7.50;;
66587;SDS011;53446;50.076;8.198;2022-10-29T07:33:39;18.77;;;7.60;;
66587;SDS011;53446;50.076;8.198;2022-10-29T07:35:40;20.87;;;6.50;;
66587;SDS011;53446;50.076;8.198;2022-10-29T07:37:40;18.63;;;6.17;;
66587;SDS011;53446;50.076;8.198;2022-10-29T07:39:41;13.93;;;6.43;;
66587;SDS011;53446;50.076;8.198;2022-10-29T07:41:41;13.43;;;5.80;;
66587;SDS011;53446;50.076;8.198;2022-10-29T07:43:41;15.90;;;7.10;;
66587;SDS011;53446;50.076;8.198;2022-10-29T07:45:43;16.57;;;7.13;;
66587;SDS011;53446;50.076;8.198;2022-10-29T07:47:44;18.02;;;7.18;;
66587;SDS011;53446;50.076;8.198;2022-10-29T07:49:44;16.07;;;5.67;;
66587;SDS011;53446;50.076;8.198;2022-10-29T07:51:44;20.20;;;6.73;;
66587;SDS011;53446;50.076;8.198;2022-10-29T07:53:47;17.73;;;6.80;;
66587;SDS011;53446;50.076;8.198;2022-10-29T07:55:51;19.07;;;7.10;;
66587;SDS011;53446;50.076;8.198;2022-10-29T07:57:56;16.15;;;6.47;;
66587;SDS011;53446;50.076;8.198;2022-10-29T07:59:57;17.17;;;6.30;;
66587;SDS011;53446;50.076;8.198;2022-10-29T08:01:58;15.23;;;6.63;;
66587;SDS011;53446;50.076;8.198;2022-10-29T08:03:58;13.57;;;5.70;;
66587;SDS011;53446;50.076;8.198;2022-10-29T08:05:58;15.47;;;6.77;;
66587;SDS011;53446;50.076;8.198;2022-10-29T08:07:58;13.43;;;6.00;;
66587;SDS011;53446;50.076;8.198;2022-10-29T08:09:59;13.43;;;6.10;;
66587;SDS011;53446;50.076;8.198;2022-10-29T08:11:59;13.03;;;5.70;;
66587;SDS011;53446;50.076;8.198;2022-10-29T08:13:59;18.33;;;6.87;;
66587;SDS011;53446;50.076;8.198;2022-10-29T08:16:00;15.90;;;6.30;;
66587;SDS011;53446;50.076;8.198;2022-10-29T08:18:00;14.23;;;6.03;;
66587;SDS011;53446;50.076;8.198;2022-10-29T08:20:01;17.88;;;6.50;;
66587;SDS011;53446;50.076;8.198;2022-10-29T08:22:01;13.73;;;5.67;;
66587;SDS011;53446;50.076;8.198;2022-10-29T08:24:01;19.67;;;6.93;;
66587;SDS011;53446;50.076;8.198;2022-10-29T08:26:02;19.23;;;6.75;;
66587;SDS011;53446;50.076;8.198;2022-10-29T08:28:03;15.67;;;6.33;;
66587;SDS011;53446;50.076;8.198;2022-10-29T08:30:04;16.45;;;5.85;;
66587;SDS011;53446;50.076;8.198;2022-10-29T08:32:05;20.75;;;7.05;;
66587;SDS011;53446;50.076;8.198;2022-10-29T08:34:05;16.97;;;7.27;;
66587;SDS011;53446;50.076;8.198;2022-10-29T08:36:06;15.15;;;7.15;;
66587;SDS011;53446;50.076;8.198;2022-10-29T08:38:06;17.52;;;6.93;;
66587;SDS011;53446;50.076;8.198;2022-10-29T08:40:08;20.03;;;8.17;;
66587;SDS011;53446;50.076;8.198;2022-10-29T08:44:46;19.83;;;7.88;;
66587;SDS011;53446;50.076;8.198;2022-10-29T08:47:01;17.65;;;8.18;;
66587;SDS011;53446;50.076;8.198;2022-10-29T08:49:17;20.83;;;8.73;;
66587;SDS011;53446;50.076;8.198;2022-10-29T08:51:21;21.10;;;8.77;;
66587;SDS011;53446;50.076;8.198;2022-10-29T08:53:24;21.02;;;8.27;;
66587;SDS011;53446;50.076;8.198;2022-10-29T08:55:35;13.35;;;6.55;;
66587;SDS011;53446;50.076;8.198;2022-10-29T08:57:36;17.23;;;7.88;;
66587;SDS011;53446;50.076;8.198;2022-10-29T08:59:46;16.10;;;6.47;;
66587;SDS011;53446;50.076;8.198;2022-10-29T09:02:18;13.85;;;6.60;;
66587;SDS011;53446;50.076;8.198;2022-10-29T09:11:05;18.90;;;8.23;;
66587;SDS011;53446;50.076;8.198;2022-10-29T09:19:58;19.05;;;7.90;;
66587;SDS011;53446;50.076;8.198;2022-10-29T09:22:05;19.85;;;7.38;;
66587;SDS011;53446;50.076;8.198;2022-10-29T09:24:29;23.60;;;7.57;;
66587;SDS011;53446;50.076;8.198;2022-10-29T09:27:14;12.43;;;6.72;;
66587;SDS011;53446;50.076;8.198;2022-10-29T09:30:02;20.73;;;7.20;;
66587;SDS011;53446;50.076;8.198;2022-10-29T09:31:59;23.23;;;8.00;;
66587;SDS011;53446;50.076;8.198;2022-10-29T09:34:03;14.75;;;7.35;;
66587;SDS011;53446;50.076;8.198;2022-10-29T09:36:15;19.50;;;7.40;;
66587;SDS011;53446;50.076;8.198;2022-10-29T09:38:21;18.02;;;7.35;;
66587;SDS011;53446;50.076;8.198;2022-10-29T09:40:32;21.08;;;8.02;;
66587;SDS011;53446;50.076;8.198;2022-10-29T09:42:35;17.80;;;7.15;;
66587;SDS011;53446;50.076;8.198;2022-10-29T09:44:39;20.83;;;7.60;;
66587;SDS011;53446;50.076;8.198;2022-10-29T09:51:27;31.73;;;15.95;;
66587;SDS011;53446;50.076;8.198;2022-10-29T09:53:38;27.48;;;11.38;;
66587;SDS011;53446;50.076;8.198;2022-10-29T09:55:39;23.50;;;10.73;;
66587;SDS011;53446;50.076;8.198;2022-10-29T09:57:40;23.73;;;10.43;;
66587;SDS011;53446;50.076;8.198;2022-10-29T09:59:46;18.88;;;8.50;;
66587;SDS011;53446;50.076;8.198;2022-10-29T10:01:50;16.87;;;7.30;;
66587;SDS011;53446;50.076;8.198;2022-10-29T10:03:54;26.27;;;11.10;;
66587;SDS011;53446;50.076;8.198;2022-10-29T10:05:56;17.52;;;8.30;;
66587;SDS011;53446;50.076;8.198;2022-10-29T10:08:10;18.23;;;9.00;;
66587;SDS011;53446;50.076;8.198;2022-10-29T10:10:21;17.17;;;8.90;;
66587;SDS011;53446;50.076;8.198;2022-10-29T10:12:23;21.27;;;8.32;;
66587;SDS011;53446;50.076;8.198;2022-10-29T10:14:27;16.73;;;6.43;;
66587;SDS011;53446;50.076;8.198;2022-10-29T10:16:31;26.83;;;12.27;;
66587;SDS011;53446;50.076;8.198;2022-10-29T10:20:34;22.07;;;9.97;;
66587;SDS011;53446;50.076;8.198;2022-10-29T10:22:44;22.48;;;7.40;;
66587;SDS011;53446;50.076;8.198;2022-10-29T10:24:45;18.25;;;6.88;;
66587;SDS011;53446;50.076;8.198;2022-10-29T10:26:45;16.87;;;6.23;;
66587;SDS011;53446;50.076;8.198;2022-10-29T10:28:47;14.77;;;6.33;;
66587;SDS011;53446;50.076;8.198;2022-10-29T10:31:14;18.63;;;7.72;;
66587;SDS011;53446;50.076;8.198;2022-10-29T10:33:22;18.13;;;7.90;;
66587;SDS011;53446;50.076;8.198;2022-10-29T10:35:30;18.90;;;7.63;;
66587;SDS011;53446;50.076;8.198;2022-10-29T10:37:30;17.73;;;6.73;;
66587;SDS011;53446;50.076;8.198;2022-10-29T10:39:38;18.35;;;7.97;;
66587;SDS011;53446;50.076;8.198;2022-10-29T10:41:41;17.85;;;6.97;;
66587;SDS011;53446;50.076;8.198;2022-10-29T10:43:44;20.10;;;6.53;;
66587;SDS011;53446;50.076;8.198;2022-10-29T10:45:49;16.13;;;6.57;;
66587;SDS011;53446;50.076;8.198;2022-10-29T10:47:52;21.52;;;7.25;;
66587;SDS011;53446;50.076;8.198;2022-10-29T10:50:14;18.33;;;6.22;;
66587;SDS011;53446;50.076;8.198;2022-10-29T10:52:23;13.10;;;7.10;;
66587;SDS011;53446;50.076;8.198;2022-10-29T10:54:30;18.92;;;7.53;;
66587;SDS011;53446;50.076;8.198;2022-10-29T10:56:33;13.90;;;6.65;;
66587;SDS011;53446;50.076;8.198;2022-10-29T10:58:56;17.45;;;7.40;;
66587;SDS011;53446;50.076;8.198;2022-10-29T11:01:05;17.23;;;6.90;;
66587;SDS011;53446;50.076;8.198;2022-10-29T11:03:20;14.40;;;6.93;;
66587;SDS011;53446;50.076;8.198;2022-10-29T11:05:32;15.85;;;7.55;;
66587;SDS011;53446;50.076;8.198;2022-10-29T11:07:34;16.77;;;7.50;;
66587;SDS011;53446;50.076;8.198;2022-10-29T11:09:37;24.30;;;8.63;;
66587;SDS011;53446;50.076;8.198;2022-10-29T11:11:46;21.85;;;7.53;;
66587;SDS011;53446;50.076;8.198;2022-10-29T11:16:54;21.23;;;7.97;;
66587;SDS011;53446;50.076;8.198;2022-10-29T11:23:47;19.95;;;9.32;;
66587;SDS011;53446;50.076;8.198;2022-10-29T11:25:53;24.17;;;9.38;;
66587;SDS011;53446;50.076;8.198;2022-10-29T11:30:22;14.27;;;7.75;;
66587;SDS011;53446;50.076;8.198;2022-10-29T11:34:48;20.25;;;8.30;;
66587;SDS011;53446;50.076;8.198;2022-10-29T11:36:53;24.38;;;9.90;;
66587;SDS011;53446;50.076;8.198;2022-10-29T11:39:24;23.65;;;10.15;;
66587;SDS011;53446;50.076;8.198;2022-10-29T11:43:53;18.42;;;8.60;;
66587;SDS011;53446;50.076;8.198;2022-10-29T11:50:48;18.53;;;9.30;;
66587;SDS011;53446;50.076;8.198;2022-10-29T11:55:20;18.65;;;8.05;;
66587;SDS011;53446;50.076;8.198;2022-10-29T11:59:49;20.90;;;9.40;;
66587;SDS011;53446;50.076;8.198;2022-10-29T12:04:34;21.40;;;8.65;;
66587;SDS011;53446;50.076;8.198;2022-10-29T12:12:02;18.63;;;8.77;;
66587;SDS011;53446;50.076;8.198;2022-10-29T12:14:24;20.80;;;8.93;;
66587;SDS011;53446;50.076;8.198;2022-10-29T12:16:35;14.82;;;7.53;;
66587;SDS011;53446;50.076;8.198;2022-10-29T12:19:04;15.63;;;7.80;;
66587;SDS011;53446;50.076;8.198;2022-10-29T12:21:24;24.77;;;8.60;;
66587;SDS011;53446;50.076;8.198;2022-10-29T12:23:41;16.88;;;7.22;;
66587;SDS011;53446;50.076;8.198;2022-10-29T12:26:02;17.43;;;7.70;;
66587;SDS011;53446;50.076;8.198;2022-10-29T12:30:21;19.35;;;7.95;;
66587;SDS011;53446;50.076;8.198;2022-10-29T12:32:24;17.95;;;7.03;;
66587;SDS011;53446;50.076;8.198;2022-10-29T12:38:58;20.30;;;8.02;;
66587;SDS011;53446;50.076;8.198;2022-10-29T12:41:00;15.75;;;6.75;;
66587;SDS011;53446;50.076;8.198;2022-10-29T12:43:04;16.63;;;7.00;;
66587;SDS011;53446;50.076;8.198;2022-10-29T12:45:20;16.23;;;7.15;;
66587;SDS011;53446;50.076;8.198;2022-10-29T12:47:29;22.02;;;8.65;;
66587;SDS011;53446;50.076;8.198;2022-10-29T12:49:41;19.08;;;8.73;;
66587;SDS011;53446;50.076;8.198;2022-10-29T12:52:49;20.05;;;7.90;;
66587;SDS011;53446;50.076;8.198;2022-10-29T12:54:43;35.08;;;15.50;;
66587;SDS011;53446;50.076;8.198;2022-10-29T12:56:45;23.23;;;10.07;;
66587;SDS011;53446;50.076;8.198;2022-10-29T12:58:49;24.13;;;9.88;;
66587;SDS011;53446;50.076;8.198;2022-10-29T13:00:55;17.90;;;8.13;;
66587;SDS011;53446;50.076;8.198;2022-10-29T13:02:56;18.20;;;7.82;;
66587;SDS011;53446;50.076;8.198;2022-10-29T13:09:21;20.42;;;8.95;;
66587;SDS011;53446;50.076;8.198;2022-10-29T13:11:45;25.10;;;11.80;;
66587;SDS011;53446;50.076;8.198;2022-10-29T13:13:51;17.35;;;9.63;;
66587;SDS011;53446;50.076;8.198;2022-10-29T13:16:13;20.55;;;8.82;;
66587;SDS011;53446;50.076;8.198;2022-10-29T13:20:40;19.52;;;8.13;;
66587;SDS011;53446;50.076;8.198;2022-10-29T13:22:52;21.27;;;9.75;;
66587;SDS011;53446;50.076;8.198;2022-10-29T13:27:35;23.35;;;10.60;;
66587;SDS011;53446;50.076;8.198;2022-10-29T13:29:39;18.90;;;10.30;;
66587;SDS011;53446;50.076;8.198;2022-10-29T13:31:46;22.15;;;10.25;;
66587;SDS011;53446;50.076;8.198;2022-10-29T13:33:47;21.73;;;10.80;;
66587;SDS011;53446;50.076;8.198;2022-10-29T13:35:52;21.02;;;9.00;;
66587;SDS011;53446;50.076;8.198;2022-10-29T13:37:53;24.37;;;11.87;;
66587;SDS011;53446;50.076;8.198;2022-10-29T13:42:31;32.58;;;17.67;;
66587;SDS011;53446;50.076;8.198;2022-10-29T13:44:32;33.13;;;20.60;;
66587;SDS011;53446;50.076;8.198;2022-10-29T13:49:05;25.08;;;10.90;;
66587;SDS011;53446;50.076;8.198;2022-10-29T13:51:12;18.00;;;9.75;;
66587;SDS011;53446;50.076;8.198;2022-10-29T13:53:14;17.95;;;9.85;;
66587;SDS011;53446;50.076;8.198;2022-10-29T13:55:17;24.73;;;9.88;;